Portada
METAR-TAF:

METAR-TAF

Aeropuertos :

Hawthorne, California, Estados Unidos

latitud: 33-55-25N, longitud: 118-19-55W, altitud: 19 m

Observación

El informe se hizo hace 52 minutos, a las 01:53 UTC
Viento 6 kt del oeste
Temperatura 16°C
Humedad 68%
Presión 1021 hPa
Visibilidad: 16.1 km
Cielo despejado

METAR: KHHR 310153Z 28006KT 10SM CLR 16/10 A3015 RMK AO2 SLP210 T01610100

Hora: 19:45 (02:45 UTC)


TAF: falta

Observaciones y pronósticos meteorológicos de más de 4000 aeropuertos (mensajes METAR y TAF).

Los puntos amarillos y rojos representan las estaciones disponibles.

Ponga el ratón en el punto deseado para ver el nombre de la estación.

Haga clic para ver las observaciones y los pronósticos meteorológicos.

Para cambiar el mapa : haga clic en los botones verdes con una cruz de color negro para hacer un zoom, en el botón verde con un guión para alejar o en las flechas verdes para mapas adyacentes.


METAR-TAF: